createdAt,value
2018-10-17T00:00:42.768Z,1006.14
2018-10-17T00:01:42.763Z,1006.15
2018-10-17T00:02:44.273Z,1006.12
2018-10-17T00:03:42.017Z,1006.14
2018-10-17T00:04:42.084Z,1006.12
2018-10-17T00:05:44.435Z,1006.15
2018-10-17T00:06:44.266Z,1006.14
2018-10-17T00:07:43.787Z,1006.14
2018-10-17T00:08:41.598Z,1006.14
2018-10-17T00:09:41.583Z,1006.15
2018-10-17T00:10:41.440Z,1006.18
2018-10-17T00:11:41.265Z,1006.23
2018-10-17T00:12:54.026Z,1006.25
2018-10-17T00:13:52.567Z,1006.26
2018-10-17T00:14:51.712Z,1006.26
2018-10-17T00:15:51.039Z,1006.26
2018-10-17T00:16:51.290Z,1006.26
2018-10-17T00:17:52.460Z,1006.27
2018-10-17T00:18:53.412Z,1006.24
2018-10-17T00:19:54.785Z,1006.27
2018-10-17T00:20:54.422Z,1006.25
2018-10-17T00:23:36.277Z,1006.28
2018-10-17T00:24:34.813Z,1006.26
2018-10-17T00:25:33.275Z,1006.26
2018-10-17T00:26:32.966Z,1006.26
2018-10-17T00:27:32.946Z,1006.24
2018-10-17T00:28:34.807Z,1006.22
2018-10-17T00:29:33.317Z,1006.25
2018-10-17T00:30:33.303Z,1006.24
2018-10-17T00:31:33.540Z,1006.24
2018-10-17T00:32:32.035Z,1006.26
2018-10-17T00:33:31.023Z,1006.22
2018-10-17T00:34:33.462Z,1006.22
2018-10-17T00:35:33.289Z,1006.22
2018-10-17T00:36:34.276Z,1006.23
2018-10-17T00:37:40.541Z,1006.23
2018-10-17T00:38:41.786Z,1006.21
2018-10-17T00:39:39.607Z,1006.18
2018-10-17T00:40:39.100Z,1006.24
2018-10-17T00:41:39.288Z,1006.21
2018-10-17T00:42:38.784Z,1006.21
2018-10-17T00:45:20.908Z,1006.21
2018-10-17T00:46:21.288Z,1006.17
2018-10-17T00:47:20.159Z,1006.18
2018-10-17T00:48:20.284Z,1006.23
2018-10-17T00:49:19.780Z,1006.22
2018-10-17T00:50:18.782Z,1006.25
2018-10-17T00:51:17.279Z,1006.22
2018-10-17T00:55:02.378Z,1006.19
2018-10-17T00:56:01.300Z,1006.17
2018-10-17T00:57:00.782Z,1006.2
2018-10-17T00:57:59.801Z,1006.12
2018-10-17T00:58:57.742Z,1006.14
2018-10-17T00:59:57.250Z,1006.14
2018-10-17T01:00:57.341Z,1006.17
2018-10-17T01:04:36.782Z,1006.14
2018-10-17T01:05:39.004Z,1006.16
2018-10-17T01:06:39.405Z,1006.1
2018-10-17T01:07:36.980Z,1006.09
2018-10-17T01:08:36.910Z,1006.05
2018-10-17T01:09:35.574Z,1006.07
2018-10-17T01:10:34.581Z,1006.04
2018-10-17T01:11:34.646Z,1006.06
2018-10-17T01:12:34.328Z,1006.04
2018-10-17T01:13:33.559Z,1006.04
2018-10-17T01:15:56.795Z,1006.06
2018-10-17T01:16:58.266Z,1006.07
2018-10-17T01:18:01.300Z,1006.06
2018-10-17T01:19:03.334Z,1006.03
2018-10-17T01:20:02.799Z,1006.06
2018-10-17T01:21:02.312Z,1006.01
2018-10-17T01:22:00.809Z,1005.98
2018-10-17T01:22:59.844Z,1005.92
2018-10-17T01:23:58.554Z,1005.95
2018-10-17T01:24:58.926Z,1005.95
2018-10-17T01:25:58.806Z,1005.95
2018-10-17T01:26:57.317Z,1005.96
2018-10-17T01:27:57.306Z,1005.93
2018-10-17T01:28:56.336Z,1005.93
2018-10-17T01:29:56.809Z,1005.91
2018-10-17T01:30:57.359Z,1005.88
2018-10-17T01:31:55.210Z,1005.89
2018-10-17T01:32:53.692Z,1005.93
2018-10-17T01:33:54.297Z,1005.91
2018-10-17T01:34:54.846Z,1005.86
2018-10-17T01:35:52.824Z,1005.89
2018-10-17T01:36:51.495Z,1005.85
2018-10-17T01:39:34.305Z,1005.87
2018-10-17T01:40:33.010Z,1005.82
2018-10-17T01:41:32.396Z,1005.87
2018-10-17T01:42:32.804Z,1005.81
2018-10-17T01:44:48.894Z,1005.82
2018-10-17T01:45:48.904Z,1005.87
2018-10-17T01:46:48.712Z,1005.85
2018-10-17T01:47:47.228Z,1005.81
2018-10-17T01:51:29.401Z,1005.83
2018-10-17T01:52:28.400Z,1005.84
2018-10-17T01:53:26.338Z,1005.83
2018-10-17T01:54:24.882Z,1005.86
2018-10-17T01:55:25.122Z,1005.85
2018-10-17T01:56:26.104Z,1005.79
2018-10-17T01:57:26.130Z,1005.78
2018-10-17T01:58:25.968Z,1005.77
2018-10-17T02:01:27.660Z,1005.75
2018-10-17T02:02:27.030Z,1005.71
2018-10-17T02:03:27.349Z,1005.72
2018-10-17T02:04:32.400Z,1005.72
2018-10-17T02:05:33.335Z,1005.68
2018-10-17T02:06:31.844Z,1005.67
2018-10-17T02:07:30.487Z,1005.71
2018-10-17T02:08:30.830Z,1005.68
2018-10-17T02:09:28.550Z,1005.73
2018-10-17T02:10:28.835Z,1005.73
2018-10-17T02:11:28.557Z,1005.72
2018-10-17T02:12:27.602Z,1005.79
2018-10-17T02:13:26.821Z,1005.68
2018-10-17T02:14:26.349Z,1005.73
2018-10-17T02:15:24.882Z,1005.75
2018-10-17T02:16:27.329Z,1005.72
2018-10-17T02:17:27.419Z,1005.75
2018-10-17T02:21:09.416Z,1005.73
2018-10-17T02:22:08.150Z,1005.79
2018-10-17T02:23:12.873Z,1005.79
2018-10-17T02:24:11.852Z,1005.73
2018-10-17T02:25:10.669Z,1005.78
2018-10-17T02:26:10.840Z,1005.78
2018-10-17T02:27:08.481Z,1005.77
2018-10-17T02:28:08.839Z,1005.79
2018-10-17T02:29:09.464Z,1005.75
2018-10-17T02:30:07.950Z,1005.74
2018-10-17T02:31:06.596Z,1005.77
2018-10-17T02:32:06.326Z,1005.76
2018-10-17T02:33:06.834Z,1005.77
2018-10-17T02:34:04.668Z,1005.75
2018-10-17T02:35:04.156Z,1005.74
2018-10-17T02:36:03.339Z,1005.74
2018-10-17T02:37:05.904Z,1005.72
2018-10-17T02:38:04.169Z,1005.71
2018-10-17T02:39:03.739Z,1005.74
2018-10-17T02:40:02.270Z,1005.7
2018-10-17T02:41:04.543Z,1005.68
2018-10-17T02:42:04.342Z,1005.71
2018-10-17T02:43:03.410Z,1005.69
2018-10-17T02:44:03.344Z,1005.68
2018-10-17T02:45:01.837Z,1005.69
2018-10-17T02:46:02.347Z,1005.67
2018-10-17T02:47:00.939Z,1005.67
2018-10-17T02:49:12.765Z,1005.68
2018-10-17T02:50:13.850Z,1005.71
2018-10-17T02:51:13.840Z,1005.67
2018-10-17T02:52:13.340Z,1005.72
2018-10-17T02:53:13.999Z,1005.68
2018-10-17T02:54:12.855Z,1005.68
2018-10-17T02:55:13.462Z,1005.74
2018-10-17T02:56:12.347Z,1005.7
2018-10-17T02:57:11.208Z,1005.7
2018-10-17T02:58:09.737Z,1005.69
2018-10-17T02:59:08.400Z,1005.7
2018-10-17T03:00:09.351Z,1005.71
2018-10-17T03:01:08.462Z,1005.72
2018-10-17T03:02:09.363Z,1005.72
2018-10-17T03:03:10.339Z,1005.78
2018-10-17T03:04:09.932Z,1005.74
2018-10-17T03:05:08.637Z,1005.74
2018-10-17T03:06:07.842Z,1005.76
2018-10-17T03:07:08.911Z,1005.73
2018-10-17T03:08:06.444Z,1005.73
2018-10-17T03:09:06.033Z,1005.79
2018-10-17T03:10:06.528Z,1005.73
2018-10-17T03:11:05.943Z,1005.75
2018-10-17T03:12:05.849Z,1005.75
2018-10-17T03:13:06.124Z,1005.75
2018-10-17T03:14:05.864Z,1005.77
2018-10-17T03:15:04.353Z,1005.78
2018-10-17T03:16:03.364Z,1005.79
2018-10-17T03:17:05.357Z,1005.8
2018-10-17T03:18:04.360Z,1005.83
2018-10-17T03:19:04.904Z,1005.83
2018-10-17T03:20:04.095Z,1005.83
2018-10-17T03:21:04.069Z,1005.83
2018-10-17T03:22:06.078Z,1005.8
2018-10-17T03:23:07.429Z,1005.86
2018-10-17T03:24:05.125Z,1005.84
2018-10-17T03:25:03.836Z,1005.86
2018-10-17T03:26:03.351Z,1005.83
2018-10-17T03:27:00.850Z,1005.85
2018-10-17T03:28:00.970Z,1005.89
2018-10-17T03:28:59.382Z,1005.86
2018-10-17T03:29:57.224Z,1005.85
2018-10-17T03:30:58.485Z,1005.86
2018-10-17T03:31:58.439Z,1005.86
2018-10-17T03:32:57.812Z,1005.83
2018-10-17T03:33:56.858Z,1005.86
2018-10-17T03:34:55.959Z,1005.77
2018-10-17T03:35:56.030Z,1005.81
2018-10-17T03:36:55.976Z,1005.83
2018-10-17T03:37:55.934Z,1005.87
2018-10-17T03:38:55.853Z,1005.84
2018-10-17T03:39:53.739Z,1005.83
2018-10-17T03:40:53.361Z,1005.87
2018-10-17T03:41:52.359Z,1005.81
2018-10-17T03:42:51.376Z,1005.81
2018-10-17T03:43:50.305Z,1005.79
2018-10-17T03:44:56.376Z,1005.81
2018-10-17T03:45:57.577Z,1005.8
2018-10-17T03:46:57.563Z,1005.86
2018-10-17T03:47:58.370Z,1005.86
2018-10-17T03:48:55.946Z,1005.87
2018-10-17T03:49:56.439Z,1005.87
2018-10-17T03:50:54.936Z,1005.88
2018-10-17T03:51:55.905Z,1005.85
2018-10-17T03:52:56.046Z,1005.89
2018-10-17T03:53:55.865Z,1005.91
2018-10-17T03:54:56.473Z,1005.89
2018-10-17T03:55:56.368Z,1005.9
2018-10-17T03:56:54.417Z,1005.91
2018-10-17T03:57:52.981Z,1005.83
2018-10-17T03:58:52.492Z,1005.88
2018-10-17T03:59:53.878Z,1005.91
2018-10-17T04:00:53.177Z,1005.86
2018-10-17T04:01:53.479Z,1005.89
2018-10-17T04:02:53.964Z,1005.89
2018-10-17T04:03:54.368Z,1005.92
2018-10-17T04:04:52.410Z,1005.9
2018-10-17T04:05:52.394Z,1005.87
2018-10-17T04:06:51.369Z,1005.93
2018-10-17T04:07:49.875Z,1005.88
2018-10-17T04:08:50.400Z,1005.92
2018-10-17T04:09:48.882Z,1005.89
2018-10-17T04:10:47.900Z,1005.93
2018-10-17T04:11:46.375Z,1005.94
2018-10-17T04:12:44.399Z,1005.97
2018-10-17T04:13:44.409Z,1005.93
2018-10-17T04:14:44.175Z,1005.92
2018-10-17T04:15:44.402Z,1005.93
2018-10-17T04:16:42.889Z,1005.91
2018-10-17T04:17:41.449Z,1005.93
2018-10-17T04:18:40.886Z,1005.91
2018-10-17T04:19:40.390Z,1005.92
2018-10-17T04:20:40.457Z,1005.92
2018-10-17T04:21:40.457Z,1005.93
2018-10-17T04:22:40.508Z,1005.99
2018-10-17T04:23:39.374Z,1005.95
2018-10-17T04:24:41.462Z,1005.98
2018-10-17T04:25:41.381Z,1005.95
2018-10-17T04:26:39.355Z,1005.95
2018-10-17T04:27:38.464Z,1005.94
2018-10-17T04:28:36.987Z,1005.91
2018-10-17T04:29:36.378Z,1005.94
2018-10-17T04:30:34.248Z,1005.94
2018-10-17T04:31:33.403Z,1005.95
2018-10-17T04:32:31.890Z,1005.99
2018-10-17T04:33:31.450Z,1005.92
2018-10-17T04:34:30.235Z,1005.97
2018-10-17T04:37:10.364Z,1005.96
2018-10-17T04:38:10.549Z,1005.98
2018-10-17T04:39:12.381Z,1006
2018-10-17T04:40:11.911Z,1005.96
2018-10-17T04:41:12.959Z,1005.98
2018-10-17T04:42:14.384Z,1006.02
2018-10-17T04:43:13.719Z,1006.03
2018-10-17T04:44:14.051Z,1005.98
2018-10-17T04:45:14.085Z,1006.02
2018-10-17T04:46:14.877Z,1006
2018-10-17T04:47:12.159Z,1005.97
2018-10-17T04:50:56.394Z,1005.99
2018-10-17T04:51:54.843Z,1005.98
2018-10-17T04:52:55.441Z,1006
2018-10-17T04:53:54.396Z,1006
2018-10-17T04:54:53.474Z,1006.02
2018-10-17T04:55:52.970Z,1005.98
2018-10-17T04:56:54.924Z,1006.01
2018-10-17T04:57:53.601Z,1006.02
2018-10-17T04:58:54.395Z,1006.07
2018-10-17T04:59:55.065Z,1006
2018-10-17T05:05:21.932Z,1005.99
2018-10-17T05:17:16.057Z,1006.08
2018-10-17T05:28:59.426Z,1006.13
2018-10-17T05:35:46.575Z,1006.17
2018-10-17T05:40:10.402Z,1006.21
2018-10-17T05:43:57.299Z,1006.18
2018-10-17T05:44:56.548Z,1006.13
2018-10-17T05:46:24.263Z,1006.16
2018-10-17T05:47:30.754Z,1006.11
2018-10-17T05:48:29.757Z,1006.12
2018-10-17T05:49:29.852Z,1006.14
2018-10-17T05:50:37.792Z,1006.12
2018-10-17T05:51:39.300Z,1006.15
2018-10-17T05:54:19.884Z,1006.17
2018-10-17T05:55:19.767Z,1006.12
2018-10-17T05:56:19.860Z,1006.2
2018-10-17T05:57:20.755Z,1006.17
2018-10-17T05:58:20.853Z,1006.13
2018-10-17T06:02:44.547Z,1006.19
2018-10-17T06:03:46.564Z,1006.21
2018-10-17T06:04:46.370Z,1006.16
2018-10-17T06:05:45.786Z,1006.21
2018-10-17T06:09:25.766Z,1006.29
2018-10-17T06:10:24.867Z,1006.29
2018-10-17T06:11:23.647Z,1006.31
2018-10-17T06:15:48.278Z,1006.31
2018-10-17T06:44:53.148Z,1006.31
2018-10-17T06:45:53.518Z,1006.31
2018-10-17T06:46:51.668Z,1006.3
2018-10-17T06:47:51.057Z,1006.3
2018-10-17T06:50:35.297Z,1006.27
2018-10-17T06:57:40.640Z,1006.33
2018-10-17T07:00:22.301Z,1006.33
2018-10-17T07:04:29.872Z,1006.31
2018-10-17T07:05:29.118Z,1006.34
2018-10-17T07:08:10.792Z,1006.32
2018-10-17T07:09:10.437Z,1006.28
2018-10-17T07:10:15.118Z,1006.31
2018-10-17T07:11:13.814Z,1006.29
2018-10-17T07:13:54.913Z,1006.38
2018-10-17T07:14:55.892Z,1006.33
2018-10-17T07:17:38.362Z,1006.35
2018-10-17T07:18:38.618Z,1006.42
2018-10-17T07:21:34.304Z,1006.37
2018-10-17T07:26:06.049Z,1006.44
2018-10-17T07:31:29.868Z,1006.39
2018-10-17T07:32:29.265Z,1006.41
2018-10-17T07:35:10.298Z,1006.41
2018-10-17T07:37:52.917Z,1006.44
2018-10-17T07:40:36.308Z,1006.42
2018-10-17T07:43:18.903Z,1006.41
2018-10-17T07:46:05.279Z,1006.39
2018-10-17T07:48:49.137Z,1006.33
2018-10-17T07:49:48.346Z,1006.36
2018-10-17T07:54:26.412Z,1006.37
2018-10-17T07:59:25.405Z,1006.32
2018-10-17T08:02:09.340Z,1006.35
2018-10-17T08:04:50.031Z,1006.36
2018-10-17T08:06:52.137Z,1006.4
2018-10-17T08:08:26.761Z,1006.42
2018-10-17T08:11:09.469Z,1006.42
2018-10-17T08:15:36.055Z,1006.43
2018-10-17T08:16:43.357Z,1006.39
2018-10-17T08:17:46.365Z,1006.37
2018-10-17T08:21:32.007Z,1006.42
2018-10-17T08:24:13.304Z,1006.42
2018-10-17T08:27:38.541Z,1006.4
2018-10-17T08:28:38.860Z,1006.4
2018-10-17T08:30:36.360Z,1006.38
2018-10-17T08:37:51.152Z,1006.39
2018-10-17T08:41:29.997Z,1006.42
2018-10-17T08:45:53.973Z,1006.47
2018-10-17T08:48:34.494Z,1006.41
2018-10-17T08:49:33.521Z,1006.37
2018-10-17T08:50:33.522Z,1006.46
2018-10-17T08:51:33.844Z,1006.43
2018-10-17T08:52:37.032Z,1006.46
2018-10-17T08:53:36.144Z,1006.43
2018-10-17T08:54:34.949Z,1006.45
2018-10-17T08:55:41.976Z,1006.47
2018-10-17T08:56:46.512Z,1006.44
2018-10-17T09:03:27.130Z,1006.53
2018-10-17T09:04:26.021Z,1006.54
2018-10-17T09:05:25.170Z,1006.57
2018-10-17T09:07:41.184Z,1006.57
2018-10-17T09:08:39.696Z,1006.55
2018-10-17T09:09:39.601Z,1006.58
2018-10-17T09:10:39.684Z,1006.55
2018-10-17T09:11:41.101Z,1006.53
2018-10-17T09:12:42.716Z,1006.54
2018-10-17T09:13:45.846Z,1006.51
2018-10-17T09:14:47.675Z,1006.49
2018-10-17T09:15:48.434Z,1006.5
2018-10-17T09:16:45.906Z,1006.51
2018-10-17T09:17:45.846Z,1006.5
2018-10-17T09:18:47.660Z,1006.51
2018-10-17T09:19:48.801Z,1006.47
2018-10-17T09:20:46.736Z,1006.45
2018-10-17T09:21:48.067Z,1006.44
2018-10-17T09:22:48.614Z,1006.43
2018-10-17T09:25:30.171Z,1006.44
2018-10-17T09:28:10.756Z,1006.42
2018-10-17T09:29:09.764Z,1006.46
2018-10-17T09:30:09.688Z,1006.43
2018-10-17T09:31:10.109Z,1006.37
2018-10-17T09:32:07.280Z,1006.41
2018-10-17T09:33:08.295Z,1006.36
2018-10-17T09:34:12.729Z,1006.4
2018-10-17T09:35:11.672Z,1006.4
2018-10-17T09:36:10.702Z,1006.38
2018-10-17T09:39:55.145Z,1006.41
2018-10-17T09:42:37.121Z,1006.47
2018-10-17T09:43:36.323Z,1006.44
2018-10-17T09:44:36.666Z,1006.42
2018-10-17T09:47:19.626Z,1006.39
2018-10-17T09:48:20.177Z,1006.39
2018-10-17T09:51:01.306Z,1006.32
2018-10-17T09:52:00.267Z,1006.31
2018-10-17T09:54:01.420Z,1006.26
2018-10-17T09:57:43.620Z,1006.28
2018-10-17T09:58:48.105Z,1006.27
2018-10-17T09:59:48.700Z,1006.26
2018-10-17T10:00:46.924Z,1006.28
2018-10-17T10:03:29.125Z,1006.22
2018-10-17T10:06:11.000Z,1006.25
2018-10-17T10:07:11.137Z,1006.22
2018-10-17T10:08:09.666Z,1006.19
2018-10-17T10:09:11.140Z,1006.23
2018-10-17T10:14:48.783Z,1006.21
2018-10-17T10:17:28.921Z,1006.11
2018-10-17T10:20:12.835Z,1006.07
2018-10-17T10:22:16.203Z,1006.12
2018-10-17T10:23:11.034Z,1006.09
2018-10-17T10:28:33.426Z,1006.05
2018-10-17T10:29:33.903Z,1006.05
2018-10-17T10:30:32.203Z,1006.04
2018-10-17T10:31:33.353Z,1006.04
2018-10-17T10:32:33.916Z,1006.01
2018-10-17T10:38:58.365Z,1005.92
2018-10-17T10:41:39.423Z,1005.91
2018-10-17T10:42:38.441Z,1005.93
2018-10-17T10:43:38.926Z,1005.91
2018-10-17T10:44:43.380Z,1005.81
2018-10-17T10:45:43.029Z,1005.85
2018-10-17T10:46:42.907Z,1005.8
2018-10-17T10:49:29.359Z,1005.79
2018-10-17T10:50:28.380Z,1005.83
2018-10-17T10:51:26.226Z,1005.8
2018-10-17T10:54:07.384Z,1005.76
2018-10-17T10:55:05.536Z,1005.8
2018-10-17T10:57:46.534Z,1005.8
2018-10-17T10:58:47.137Z,1005.81
2018-10-17T10:59:46.468Z,1005.77
2018-10-17T11:03:26.378Z,1005.7
2018-10-17T11:06:10.405Z,1005.66
2018-10-17T11:07:10.372Z,1005.65
2018-10-17T11:08:10.624Z,1005.61
2018-10-17T11:09:08.438Z,1005.62
2018-10-17T11:33:12.121Z,1005.51
2018-10-17T11:35:53.383Z,1005.44
2018-10-17T11:36:52.402Z,1005.46
2018-10-17T11:37:50.767Z,1005.39
2018-10-17T11:38:49.301Z,1005.38
2018-10-17T11:42:29.884Z,1005.28
2018-10-17T11:43:29.044Z,1005.31
2018-10-17T11:46:17.398Z,1005.32
2018-10-17T11:48:17.903Z,1005.27
2018-10-17T11:50:56.459Z,1005.23
2018-10-17T11:51:54.965Z,1005.23
2018-10-17T11:54:37.011Z,1005.22
2018-10-17T11:55:36.008Z,1005.15
2018-10-17T11:58:17.624Z,1005.22
2018-10-17T11:59:16.527Z,1005.16
2018-10-17T12:00:18.020Z,1005.17
2018-10-17T12:01:17.608Z,1005.15
2018-10-17T12:03:58.680Z,1005.15
2018-10-17T12:04:58.097Z,1005.12
2018-10-17T12:05:57.509Z,1005.11
2018-10-17T12:06:55.902Z,1005.08
2018-10-17T12:07:55.521Z,1005.07
2018-10-17T12:13:17.088Z,1005
2018-10-17T12:14:17.024Z,1005.02
2018-10-17T12:15:15.132Z,1004.9
2018-10-17T12:16:15.028Z,1004.95
2018-10-17T12:18:38.509Z,1004.94
2018-10-17T12:20:37.176Z,1004.93
2018-10-17T12:25:02.444Z,1004.84
2018-10-17T12:26:01.060Z,1004.77
2018-10-17T12:26:59.758Z,1004.77
2018-10-17T12:28:00.395Z,1004.82
2018-10-17T12:31:39.747Z,1004.78
2018-10-17T12:35:21.648Z,1004.69
2018-10-17T12:36:20.874Z,1004.63
2018-10-17T12:37:20.020Z,1004.6
2018-10-17T12:38:22.644Z,1004.65
2018-10-17T12:39:27.340Z,1004.6
2018-10-17T12:40:25.925Z,1004.61
2018-10-17T12:41:25.363Z,1004.62
2018-10-17T12:42:24.898Z,1004.59
2018-10-17T12:43:24.163Z,1004.58
2018-10-17T12:44:25.349Z,1004.56
2018-10-17T12:45:24.081Z,1004.57
2018-10-17T12:46:25.746Z,1004.6
2018-10-17T12:47:23.585Z,1004.53
2018-10-17T12:48:26.712Z,1004.53
2018-10-17T12:49:25.251Z,1004.5
2018-10-17T12:50:24.789Z,1004.51
2018-10-17T12:51:23.502Z,1004.55
2018-10-17T12:52:22.929Z,1004.48
2018-10-17T12:53:23.670Z,1004.5
2018-10-17T12:54:21.396Z,1004.52
2018-10-17T12:55:20.571Z,1004.47
2018-10-17T12:56:21.756Z,1004.46
2018-10-17T12:57:20.483Z,1004.45
2018-10-17T12:58:20.156Z,1004.48
2018-10-17T12:59:19.834Z,1004.43
2018-10-17T13:00:17.902Z,1004.44
2018-10-17T13:01:17.247Z,1004.51
2018-10-17T13:02:15.648Z,1004.46
2018-10-17T13:03:15.120Z,1004.47
2018-10-17T13:04:15.205Z,1004.42
2018-10-17T13:05:14.651Z,1004.46
2018-10-17T13:06:13.664Z,1004.47
2018-10-17T13:07:13.747Z,1004.45
2018-10-17T13:08:11.725Z,1004.4
2018-10-17T13:10:21.329Z,1004.47
2018-10-17T13:11:20.230Z,1004.46
2018-10-17T13:12:23.727Z,1004.43
2018-10-17T13:13:22.350Z,1004.41
2018-10-17T13:14:24.763Z,1004.44
2018-10-17T13:15:23.236Z,1004.46
2018-10-17T13:16:21.390Z,1004.45
2018-10-17T13:17:20.125Z,1004.43
2018-10-17T13:18:20.229Z,1004.44
2018-10-17T13:19:20.074Z,1004.42
2018-10-17T13:20:19.729Z,1004.41
2018-10-17T13:21:17.168Z,1004.38
2018-10-17T13:22:17.728Z,1004.37
2018-10-17T13:23:15.325Z,1004.36
2018-10-17T13:24:15.226Z,1004.32
2018-10-17T13:25:14.304Z,1004.43
2018-10-17T13:26:13.152Z,1004.31
2018-10-17T13:27:16.227Z,1004.33
2018-10-17T13:28:14.089Z,1004.32
2018-10-17T13:29:14.643Z,1004.34
2018-10-17T13:30:14.774Z,1004.32
2018-10-17T13:31:15.918Z,1004.28
2018-10-17T13:32:14.134Z,1004.24
2018-10-17T13:33:15.261Z,1004.27
2018-10-17T13:34:16.791Z,1004.27
2018-10-17T13:35:16.212Z,1004.24
2018-10-17T13:36:16.549Z,1004.26
2018-10-17T13:37:16.852Z,1004.21
2018-10-17T13:38:15.345Z,1004.22
2018-10-17T13:39:16.597Z,1004.17
2018-10-17T13:40:18.299Z,1004.21
2018-10-17T13:41:16.847Z,1004.15
2018-10-17T13:43:57.938Z,1004.11
2018-10-17T13:46:39.777Z,1004.21
2018-10-17T13:47:38.756Z,1004.2
2018-10-17T13:48:37.800Z,1004.25
2018-10-17T13:49:36.912Z,1004.2
2018-10-17T13:50:37.609Z,1004.21
2018-10-17T13:53:17.852Z,1004.2
2018-10-17T13:54:16.528Z,1004.15
2018-10-17T13:55:18.785Z,1004.16
2018-10-17T13:56:19.251Z,1004.14
2018-10-17T13:57:18.809Z,1004.14
2018-10-17T14:00:59.301Z,1004.15
2018-10-17T14:01:57.730Z,1004.14
2018-10-17T14:02:57.334Z,1004.14
2018-10-17T14:03:57.348Z,1004.19
2018-10-17T14:06:37.708Z,1004.22
2018-10-17T14:07:37.198Z,1004.21
2018-10-17T14:10:19.265Z,1004.17
2018-10-17T14:11:18.851Z,1004.23
2018-10-17T14:12:19.336Z,1004.25
2018-10-17T14:13:19.774Z,1004.19
2018-10-17T14:14:55.443Z,1004.25
2018-10-17T14:15:53.833Z,1004.2
2018-10-17T14:18:15.213Z,1004.22
2018-10-17T14:19:19.923Z,1004.24
2018-10-17T14:22:00.209Z,1004.21
2018-10-17T14:23:00.928Z,1004.17
2018-10-17T14:24:00.484Z,1004.21
2018-10-17T14:26:41.184Z,1004.19
2018-10-17T14:27:40.873Z,1004.17
2018-10-17T14:28:43.740Z,1004.15
2018-10-17T14:31:24.934Z,1004.11
2018-10-17T14:32:23.706Z,1004.12
2018-10-17T14:33:23.994Z,1004.13
2018-10-17T14:34:23.457Z,1004.12
2018-10-17T14:35:22.955Z,1004.11
2018-10-17T14:36:24.593Z,1004.1
2018-10-17T14:37:23.468Z,1004.1
2018-10-17T14:38:22.870Z,1004.12
2018-10-17T14:39:22.440Z,1004.06
2018-10-17T14:42:04.885Z,1004.09
2018-10-17T14:43:03.642Z,1004.07
2018-10-17T14:44:03.438Z,1004.07
2018-10-17T14:45:04.966Z,1004.06
2018-10-17T14:46:03.116Z,1004
2018-10-17T14:47:02.657Z,1004.06
2018-10-17T14:48:03.534Z,1004.07
2018-10-17T14:49:02.465Z,1004.07
2018-10-17T14:50:00.899Z,1004.07
2018-10-17T14:51:02.068Z,1004.03
2018-10-17T14:53:42.991Z,1004.03
2018-10-17T14:54:41.444Z,1003.99
2018-10-17T14:55:40.950Z,1004.05
2018-10-17T14:56:54.043Z,1004.03
2018-10-17T14:57:54.021Z,1004.04
2018-10-17T15:00:33.720Z,1004
2018-10-17T15:01:32.357Z,1004
2018-10-17T15:02:32.446Z,1003.99
2018-10-17T15:03:31.231Z,1003.99
2018-10-17T15:06:15.191Z,1003.97
2018-10-17T15:08:56.638Z,1004.02
2018-10-17T15:09:55.426Z,1004.04
2018-10-17T15:10:58.672Z,1004.03
2018-10-17T15:11:59.532Z,1004.07
2018-10-17T15:12:57.993Z,1004.03
2018-10-17T15:13:57.944Z,1004.04
2018-10-17T15:14:56.594Z,1004.01
2018-10-17T15:15:55.142Z,1004.01
2018-10-17T15:16:55.462Z,1004.06
2018-10-17T15:20:38.118Z,1004
2018-10-17T15:21:38.453Z,1004
2018-10-17T15:22:36.028Z,1004.02
2018-10-17T15:23:34.854Z,1004.05
2018-10-17T15:24:34.301Z,1004.06
2018-10-17T15:25:33.751Z,1004.03
2018-10-17T15:26:34.462Z,1004.02
2018-10-17T15:27:33.503Z,1004.04
2018-10-17T15:28:36.028Z,1004.03
2018-10-17T15:29:35.456Z,1004
2018-10-17T15:30:35.456Z,1004.01
2018-10-17T15:31:34.347Z,1004.04
2018-10-17T15:32:33.960Z,1004.06
2018-10-17T15:33:33.675Z,1004.04
2018-10-17T15:36:13.778Z,1004.08
2018-10-17T15:37:13.222Z,1004.1
2018-10-17T15:38:12.971Z,1004.07
2018-10-17T15:39:12.787Z,1004.05
2018-10-17T15:41:37.972Z,1004.09
2018-10-17T15:42:35.287Z,1004.08
2018-10-17T15:43:33.960Z,1004.05
2018-10-17T15:44:32.473Z,1004.08
2018-10-17T15:45:31.996Z,1004.08
2018-10-17T15:46:29.744Z,1004.04
2018-10-17T15:47:28.530Z,1004.06
2018-10-17T15:48:30.524Z,1004.13
2018-10-17T15:49:29.565Z,1004.08
2018-10-17T15:50:29.021Z,1004.1
2018-10-17T15:51:28.502Z,1004.1
2018-10-17T15:52:27.982Z,1004.08
2018-10-17T15:53:31.252Z,1004.07
2018-10-17T15:54:30.465Z,1004.04
2018-10-17T15:55:30.164Z,1004.06
2018-10-17T15:56:29.477Z,1004.05
2018-10-17T15:57:28.087Z,1004.02
2018-10-17T15:58:28.487Z,1004
2018-10-17T15:59:26.299Z,1004.03
2018-10-17T16:02:08.022Z,1004.03
2018-10-17T16:03:06.983Z,1004.04
2018-10-17T16:06:45.305Z,1004
2018-10-17T16:07:46.016Z,1003.95
2018-10-17T16:08:45.472Z,1003.98
2018-10-17T16:09:43.323Z,1003.97
2018-10-17T16:12:24.513Z,1003.98
2018-10-17T16:13:23.995Z,1004.03
2018-10-17T16:14:23.986Z,1004.01
2018-10-17T16:15:21.350Z,1004.05
2018-10-17T16:16:21.833Z,1004.06
2018-10-17T16:17:23.480Z,1004.04
2018-10-17T16:21:02.104Z,1004.1
2018-10-17T16:22:00.705Z,1004.11
2018-10-17T16:23:00.369Z,1004.09
2018-10-17T16:23:59.546Z,1004.13
2018-10-17T16:24:58.518Z,1004.09
2018-10-17T16:27:38.504Z,1004.09
2018-10-17T16:28:37.262Z,1004.07
2018-10-17T16:29:36.296Z,1004.11
2018-10-17T16:30:37.036Z,1004.08
2018-10-17T16:31:35.759Z,1004.12
2018-10-17T16:32:36.079Z,1004.13
2018-10-17T16:33:36.903Z,1004.17
2018-10-17T16:36:17.132Z,1004.19
2018-10-17T16:37:17.498Z,1004.14
2018-10-17T16:38:15.322Z,1004.21
2018-10-17T16:39:14.574Z,1004.15
2018-10-17T16:40:14.165Z,1004.2
2018-10-17T16:41:14.994Z,1004.17
2018-10-17T16:42:14.513Z,1004.24
2018-10-17T16:43:12.662Z,1004.21
2018-10-17T16:44:12.399Z,1004.26
2018-10-17T16:45:12.497Z,1004.27
2018-10-17T16:46:11.284Z,1004.27
2018-10-17T16:47:11.491Z,1004.25
2018-10-17T16:49:51.191Z,1004.34
2018-10-17T16:50:51.541Z,1004.35
2018-10-17T16:51:51.029Z,1004.36
2018-10-17T16:55:31.509Z,1004.45
2018-10-17T16:56:29.798Z,1004.44
2018-10-17T16:58:45.452Z,1004.49
2018-10-17T16:59:46.355Z,1004.49
2018-10-17T17:00:45.911Z,1004.46
2018-10-17T17:01:45.212Z,1004.54
2018-10-17T17:02:45.742Z,1004.49
2018-10-17T17:03:45.639Z,1004.5
2018-10-17T17:07:25.157Z,1004.54
2018-10-17T17:08:24.226Z,1004.55
2018-10-17T17:09:23.394Z,1004.56
2018-10-17T17:10:22.641Z,1004.58
2018-10-17T17:11:22.657Z,1004.59
2018-10-17T17:12:22.640Z,1004.59
2018-10-17T17:13:20.564Z,1004.57
2018-10-17T17:14:19.249Z,1004.55
2018-10-17T17:17:00.148Z,1004.66
2018-10-17T17:17:59.187Z,1004.61
2018-10-17T17:18:58.231Z,1004.62
2018-10-17T17:19:58.150Z,1004.64
2018-10-17T17:20:57.226Z,1004.64
2018-10-17T17:21:55.113Z,1004.6
2018-10-17T17:22:55.310Z,1004.59
2018-10-17T17:23:55.310Z,1004.56
2018-10-17T17:24:56.666Z,1004.62
2018-10-17T17:25:56.156Z,1004.59
2018-10-17T17:26:55.701Z,1004.59
2018-10-17T17:27:55.650Z,1004.6
2018-10-17T17:28:52.553Z,1004.63
2018-10-17T17:29:55.893Z,1004.6
2018-10-17T17:30:57.160Z,1004.64
2018-10-17T17:31:57.384Z,1004.68
2018-10-17T17:32:58.497Z,1004.64
2018-10-17T17:33:59.167Z,1004.65
2018-10-17T17:34:58.447Z,1004.65
2018-10-17T17:35:58.681Z,1004.63
2018-10-17T17:36:58.153Z,1004.69
2018-10-17T17:37:57.174Z,1004.66
2018-10-17T17:38:56.165Z,1004.65
2018-10-17T17:39:55.507Z,1004.68
2018-10-17T17:42:36.191Z,1004.73
2018-10-17T17:43:36.664Z,1004.68
2018-10-17T17:44:35.407Z,1004.65
2018-10-17T17:45:33.896Z,1004.69
2018-10-17T17:46:36.742Z,1004.67
2018-10-17T17:47:36.050Z,1004.67
2018-10-17T17:48:36.157Z,1004.71
2018-10-17T17:49:38.188Z,1004.69
2018-10-17T17:50:36.955Z,1004.71
2018-10-17T17:51:37.661Z,1004.72
2018-10-17T17:52:35.690Z,1004.73
2018-10-17T17:53:35.661Z,1004.75